Time;durP1;ratioP1;P1;durP2;ratioP2;P2;SDS_P1;SDS_P2;PMS_P1;PMS_P2;Temp;Humidity;BMP_temperature;BMP_pressure;BME280_temperature;BME280_humidity;BME280_pressure;Samples;Min_cycle;Max_cycle;Signal;HPM_P1;HPM_P2
2023/09/30 07:02:16;;;;;;;;;5.33;5.33;;;;;;;;6186447;23;45175;-87
2023/09/30 07:04:41;;;;;;;;;8.00;8.00;;;;;;;;6189254;23;45158;-88
2023/09/30 07:07:06;;;;;;;;;8.00;6.67;;;;;;;;6189922;23;45273;-88
2023/09/30 07:09:31;;;;;;;;;4.67;4.67;;;;;;;;6201037;22;45157;-89
2023/09/30 07:11:56;;;;;;;;;6.33;6.33;;;;;;;;6219334;22;45273;-88
2023/09/30 07:14:22;;;;;;;;;3.33;3.33;;;;;;;;6219439;22;45216;-88
2023/09/30 07:16:47;;;;;;;;;6.00;6.00;;;;;;;;6220423;22;45164;-89
2023/09/30 07:19:12;;;;;;;;;4.67;4.67;;;;;;;;6219450;22;45240;-88
2023/09/30 07:21:38;;;;;;;;;6.33;5.67;;;;;;;;6220319;22;46490;-89
2023/09/30 07:24:03;;;;;;;;;7.00;6.67;;;;;;;;6218095;22;45508;-89
2023/09/30 07:26:29;;;;;;;;;4.00;4.00;;;;;;;;6218506;22;45260;-89
2023/09/30 07:28:56;;;;;;;;;5.00;5.00;;;;;;;;6219975;22;45271;-88
2023/09/30 07:31:22;;;;;;;;;4.67;4.67;;;;;;;;6219874;22;45408;-88
2023/09/30 07:33:47;;;;;;;;;5.67;5.67;;;;;;;;6220020;22;45364;-88
2023/09/30 07:36:14;;;;;;;;;4.33;4.33;;;;;;;;6218078;22;45354;-88
2023/09/30 07:38:40;;;;;;;;;6.00;6.00;;;;;;;;6219737;22;45316;-88
2023/09/30 07:41:05;;;;;;;;;6.67;6.67;;;;;;;;6219324;22;45134;-89
2023/09/30 07:43:30;;;;;;;;;8.33;8.33;;;;;;;;6192994;22;45606;-89
2023/09/30 07:45:56;;;;;;;;;7.33;7.33;;;;;;;;6193450;22;45246;-90
2023/09/30 07:48:21;;;;;;;;;5.00;5.00;;;;;;;;6220356;22;45250;-89
2023/09/30 07:50:47;;;;;;;;;5.67;4.33;;;;;;;;6217919;22;45624;-88
2023/09/30 07:53:12;;;;;;;;;4.00;4.00;;;;;;;;6219593;22;45314;-88
2023/09/30 07:55:39;;;;;;;;;4.00;4.00;;;;;;;;6219249;22;45214;-90
2023/09/30 07:58:04;;;;;;;;;7.00;5.00;;;;;;;;6219577;22;45375;-90
2023/09/30 08:00:29;;;;;;;;;6.67;6.33;;;;;;;;6219735;22;45677;-90
2023/09/30 08:02:55;;;;;;;;;4.00;4.00;;;;;;;;6190725;22;45292;-90
2023/09/30 08:05:20;;;;;;;;;7.33;6.33;;;;;;;;6219401;22;45229;-90
2023/09/30 08:07:46;;;;;;;;;3.67;3.67;;;;;;;;6191577;22;45416;-90
2023/09/30 08:10:13;;;;;;;;;5.67;5.67;;;;;;;;6217604;22;45600;-90
2023/09/30 08:12:56;;;;;;;;;6.33;5.33;;;;;;;;6218127;22;45153;-96
2023/09/30 08:15:21;;;;;;;;;2.67;2.67;;;;;;;;6191267;22;45304;-90
2023/09/30 08:17:47;;;;;;;;;4.67;4.67;;;;;;;;6191549;22;45406;-91
2023/09/30 08:20:41;;;;;;;;;6.33;6.33;;;;;;;;6218858;22;45342;-93
2023/09/30 08:23:07;;;;;;;;;4.00;4.00;;;;;;;;6177210;22;45368;-91
2023/09/30 08:25:34;;;;;;;;;5.33;5.33;;;;;;;;6219328;22;45284;-91
2023/09/30 08:28:00;;;;;;;;;7.67;7.33;;;;;;;;6218974;22;45205;-91
2023/09/30 08:30:28;;;;;;;;;5.00;5.00;;;;;;;;6218738;22;45659;-91
2023/09/30 08:32:56;;;;;;;;;7.67;7.67;;;;;;;;6192200;22;45585;-91
2023/09/30 08:35:26;;;;;;;;;6.00;5.00;;;;;;;;6218991;22;45426;-91
2023/09/30 08:37:54;;;;;;;;;6.00;4.67;;;;;;;;6191530;22;45746;-91
2023/09/30 08:40:22;;;;;;;;;5.00;5.00;;;;;;;;6191593;22;46209;-91
2023/09/30 08:42:51;;;;;;;;;6.67;6.67;;;;;;;;6217966;22;45439;-91
2023/09/30 08:45:17;;;;;;;;;3.33;3.33;;;;;;;;6217164;22;45270;-91
2023/09/30 08:47:43;;;;;;;;;7.00;5.00;;;;;;;;6219739;22;45165;-90
2023/09/30 08:50:10;;;;;;;;;6.00;6.00;;;;;;;;6190259;22;47470;-90
2023/09/30 08:52:38;;;;;;;;;4.67;4.67;;;;;;;;6218639;22;45282;-90
2023/09/30 08:55:11;;;;;;;;;5.33;4.00;;;;;;;;6215737;22;45440;-91
2023/09/30 08:57:48;;;;;;;;;4.00;4.00;;;;;;;;6218600;22;45341;-91
2023/09/30 09:00:16;;;;;;;;;4.33;4.33;;;;;;;;6219073;22;46804;-91
2023/09/30 09:02:54;;;;;;;;;;;;;;;;;;;;;
2023/09/30 09:05:20;;;;;;;;;6.00;4.00;;;;;;;;6187616;23;68139;-90
2023/09/30 09:07:54;;;;;;;;;2.67;2.67;;;;;;;;6188872;23;45460;-91
2023/09/30 09:10:34;;;;;;;;;2.00;2.00;;;;;;;;6161311;23;46081;-91
2023/09/30 09:16:18;;;;;;;;;3.00;2.33;;;;;;;;6181408;23;45318;-92
2023/09/30 09:24:53;;;;;;;;;1.33;1.33;;;;;;;;6161228;23;45553;-91
2023/09/30 09:27:28;;;;;;;;;;;;;;;;;;;;;
2023/09/30 09:30:34;;;;;;;;;4.00;3.67;;;;;;;;6187481;23;65273;-91
2023/09/30 09:33:00;;;;;;;;;2.33;2.33;;;;;;;;6186547;23;46730;-90
2023/09/30 09:35:28;;;;;;;;;1.00;1.00;;;;;;;;6187044;23;45462;-91
2023/09/30 09:37:54;;;;;;;;;2.00;1.00;;;;;;;;6188184;23;45257;-90
2023/09/30 09:40:23;;;;;;;;;5.00;4.00;;;;;;;;6161710;23;45427;-91
2023/09/30 09:42:53;;;;;;;;;2.67;1.33;;;;;;;;6187495;23;45267;-92
2023/09/30 09:45:20;;;;;;;;;1.00;1.00;;;;;;;;6189170;23;45143;-92
2023/09/30 09:47:46;;;;;;;;;2.00;2.00;;;;;;;;6189092;23;45222;-91
2023/09/30 09:50:13;;;;;;;;;2.00;1.67;;;;;;;;6188733;23;45377;-91
2023/09/30 09:52:51;;;;;;;;;;;;;;;;;;;;;
2023/09/30 09:55:21;;;;;;;;;1.00;1.00;;;;;;;;6185398;23;73605;-91
2023/09/30 10:12:33;;;;;;;;;1.33;1.33;;;;;;;;6279655;22;45397;-91
2023/09/30 10:15:21;;;;;;;;;1.67;1.67;;;;;;;;6264036;22;46399;-90
2023/09/30 10:18:10;;;;;;;;;2.00;2.00;;;;;;;;6277355;22;45364;-91
2023/09/30 10:20:36;;;;;;;;;2.00;2.00;;;;;;;;6255303;22;45446;-90
2023/09/30 10:23:17;;;;;;;;;1.00;1.00;;;;;;;;6272722;22;45290;-90
2023/09/30 10:25:47;;;;;;;;;0.33;0.33;;;;;;;;6279591;22;46774;-90
2023/09/30 10:28:30;;;;;;;;;2.00;2.00;;;;;;;;6274936;22;45634;-90
2023/09/30 10:31:19;;;;;;;;;0.00;0.00;;;;;;;;6250165;22;45334;-90
2023/09/30 10:33:59;;;;;;;;;1.00;1.00;;;;;;;;6248320;22;45250;-90
2023/09/30 10:36:37;;;;;;;;;1.00;1.00;;;;;;;;6279841;22;45303;-90
2023/09/30 10:39:03;;;;;;;;;1.33;0.67;;;;;;;;6279387;22;45259;-90
2023/09/30 10:41:51;;;;;;;;;1.00;1.00;;;;;;;;6279957;22;45120;-89
2023/09/30 10:44:26;;;;;;;;;1.67;1.67;;;;;;;;6246832;22;45410;-90
2023/09/30 10:46:59;;;;;;;;;0.00;0.00;;;;;;;;6246560;22;46721;-90
2023/09/30 10:49:25;;;;;;;;;1.00;1.00;;;;;;;;6249695;22;45722;-90
2023/09/30 10:51:50;;;;;;;;;1.33;1.33;;;;;;;;6278856;22;45402;-90
2023/09/30 10:54:21;;;;;;;;;1.00;1.00;;;;;;;;6274449;22;45711;-91
2023/09/30 10:56:47;;;;;;;;;2.00;1.00;;;;;;;;6275570;22;46197;-91
2023/09/30 10:59:18;;;;;;;;;0.67;0.67;;;;;;;;6249252;22;45181;-90
2023/09/30 11:01:43;;;;;;;;;1.00;1.00;;;;;;;;6275469;22;45703;-90
2023/09/30 11:04:09;;;;;;;;;0.67;0.67;;;;;;;;6279091;22;45435;-90
2023/09/30 11:06:34;;;;;;;;;3.00;3.00;;;;;;;;6251477;22;46999;-90
2023/09/30 11:09:00;;;;;;;;;1.00;1.00;;;;;;;;6276730;22;45287;-87
2023/09/30 11:11:35;;;;;;;;;1.67;1.00;;;;;;;;6244695;22;45612;-91
2023/09/30 11:14:01;;;;;;;;;2.00;2.00;;;;;;;;6222295;22;45197;-91
2023/09/30 11:16:26;;;;;;;;;2.33;2.33;;;;;;;;6249024;22;45816;-91
2023/09/30 11:18:54;;;;;;;;;1.00;1.00;;;;;;;;6249227;22;45355;-90
2023/09/30 11:21:20;;;;;;;;;2.00;2.00;;;;;;;;6249496;22;45169;-90
2023/09/30 11:23:45;;;;;;;;;2.00;1.00;;;;;;;;6249331;22;45081;-90
2023/09/30 11:26:31;;;;;;;;;0.00;0.00;;;;;;;;6243932;22;46745;-88
2023/09/30 11:29:04;;;;;;;;;1.00;1.00;;;;;;;;6247522;22;45217;-92
2023/09/30 11:31:33;;;;;;;;;1.00;1.00;;;;;;;;6221029;22;45285;-91
2023/09/30 11:34:38;;;;;;;;;1.00;1.00;;;;;;;;6221285;22;45379;-91
2023/09/30 11:37:04;;;;;;;;;3.00;2.00;;;;;;;;6220174;22;46410;-92
2023/09/30 11:39:30;;;;;;;;;1.00;1.00;;;;;;;;6247446;22;45368;-88
2023/09/30 11:41:56;;;;;;;;;2.00;2.00;;;;;;;;6248781;22;45323;-89
2023/09/30 11:44:22;;;;;;;;;1.00;1.00;;;;;;;;6248567;22;45415;-89
2023/09/30 11:47:19;;;;;;;;;;;;;;;;;;;;;
2023/09/30 11:52:52;;;;;;;;;1.00;1.00;;;;;;;;6226265;22;45527;-88
2023/09/30 11:55:20;;;;;;;;;0.00;0.00;;;;;;;;6249757;22;45454;-87
2023/09/30 11:57:45;;;;;;;;;1.33;1.33;;;;;;;;6250276;22;45402;-87
2023/09/30 12:00:13;;;;;;;;;1.00;1.00;;;;;;;;6250287;22;45302;-88
2023/09/30 12:02:40;;;;;;;;;1.33;1.33;;;;;;;;6250684;22;45233;-88
2023/09/30 12:05:11;;;;;;;;;1.00;1.00;;;;;;;;6250229;22;45150;-88
2023/09/30 12:07:36;;;;;;;;;2.00;1.00;;;;;;;;6250018;22;46470;-88
2023/09/30 12:10:01;;;;;;;;;1.00;1.00;;;;;;;;6250798;22;45287;-88
2023/09/30 12:12:26;;;;;;;;;2.00;1.00;;;;;;;;6281418;22;45342;-88
2023/09/30 12:14:53;;;;;;;;;1.00;1.00;;;;;;;;6281957;22;45430;-88
2023/09/30 12:17:18;;;;;;;;;2.00;2.00;;;;;;;;6276922;22;47747;-87
2023/09/30 12:19:46;;;;;;;;;1.00;1.00;;;;;;;;6278360;22;45254;-93
2023/09/30 12:22:33;;;;;;;;;;;;;;;;;;;;;
2023/09/30 12:25:24;;;;;;;;;0.67;0.67;;;;;;;;6279687;22;65802;-92
2023/09/30 12:28:09;;;;;;;;;2.00;2.00;;;;;;;;6252064;22;46980;-92
2023/09/30 12:30:34;;;;;;;;;2.00;2.00;;;;;;;;6280459;22;45105;-92
2023/09/30 12:33:02;;;;;;;;;2.00;1.00;;;;;;;;6279421;22;45175;-91
2023/09/30 12:35:27;;;;;;;;;1.00;1.00;;;;;;;;6281641;22;45407;-91
2023/09/30 12:38:17;;;;;;;;;1.00;1.00;;;;;;;;6281286;22;45291;-91
2023/09/30 12:40:43;;;;;;;;;1.00;1.00;;;;;;;;6252419;22;45197;-91
2023/09/30 12:43:11;;;;;;;;;1.33;1.33;;;;;;;;6281420;22;45150;-91
2023/09/30 12:45:38;;;;;;;;;1.00;1.00;;;;;;;;6281441;22;45155;-90
2023/09/30 12:48:04;;;;;;;;;0.33;0.33;;;;;;;;6253468;22;47333;-90
2023/09/30 12:50:29;;;;;;;;;1.33;1.33;;;;;;;;6279780;22;45384;-90
2023/09/30 12:52:54;;;;;;;;;0.00;0.00;;;;;;;;6253021;22;45813;-89
2023/09/30 12:55:19;;;;;;;;;0.33;0.33;;;;;;;;6252752;22;45576;-89
2023/09/30 12:57:45;;;;;;;;;0.67;0.67;;;;;;;;6280495;22;46250;-88
2023/09/30 13:00:10;;;;;;;;;2.00;2.00;;;;;;;;6279834;22;45372;-88
2023/09/30 13:02:35;;;;;;;;;0.00;0.00;;;;;;;;6280501;22;45397;-88
2023/09/30 13:05:01;;;;;;;;;1.00;1.00;;;;;;;;6281623;22;45275;-88
2023/09/30 13:07:35;;;;;;;;;1.00;1.00;;;;;;;;6281224;22;45372;-91
2023/09/30 13:10:00;;;;;;;;;0.33;0.33;;;;;;;;6278557;22;45322;-89
2023/09/30 13:12:26;;;;;;;;;2.00;2.00;;;;;;;;6281115;22;45252;-89
2023/09/30 13:14:55;;;;;;;;;1.67;1.67;;;;;;;;6281322;22;45427;-88
2023/09/30 13:17:21;;;;;;;;;0.00;0.00;;;;;;;;6257770;22;46734;-89
2023/09/30 13:19:46;;;;;;;;;1.00;1.00;;;;;;;;6252129;22;45569;-89
2023/09/30 13:22:12;;;;;;;;;1.00;1.00;;;;;;;;6252643;22;45253;-89
2023/09/30 13:24:39;;;;;;;;;1.00;1.00;;;;;;;;6280926;22;45338;-88
2023/09/30 13:27:04;;;;;;;;;0.00;0.00;;;;;;;;6279848;22;45704;-89
2023/09/30 13:29:30;;;;;;;;;3.00;1.00;;;;;;;;6278891;22;45191;-89
2023/09/30 13:31:55;;;;;;;;;0.33;0.33;;;;;;;;6281255;22;45283;-89
2023/09/30 13:34:20;;;;;;;;;0.00;0.00;;;;;;;;6279592;22;45467;-89
2023/09/30 13:36:45;;;;;;;;;2.00;1.00;;;;;;;;6280863;22;45245;-89
2023/09/30 13:39:12;;;;;;;;;0.67;0.67;;;;;;;;6280290;22;45158;-89
2023/09/30 13:41:38;;;;;;;;;0.33;0.33;;;;;;;;6281282;22;45240;-89
2023/09/30 13:44:03;;;;;;;;;1.00;1.00;;;;;;;;6280881;22;45532;-89
2023/09/30 13:46:30;;;;;;;;;0.67;0.67;;;;;;;;6279549;22;45313;-89
2023/09/30 13:48:55;;;;;;;;;1.00;1.00;;;;;;;;6251913;22;45328;-89
2023/09/30 13:51:20;;;;;;;;;1.33;1.33;;;;;;;;6280433;22;45062;-89
2023/09/30 13:53:46;;;;;;;;;0.00;0.00;;;;;;;;6280774;22;45378;-89
2023/09/30 13:56:11;;;;;;;;;1.00;1.00;;;;;;;;6277938;22;45187;-89
2023/09/30 13:58:36;;;;;;;;;0.00;0.00;;;;;;;;6278789;22;45216;-89
2023/09/30 14:01:02;;;;;;;;;0.00;0.00;;;;;;;;6278128;22;45258;-88
2023/09/30 14:03:30;;;;;;;;;1.00;1.00;;;;;;;;6281845;22;45376;-89
2023/09/30 14:05:58;;;;;;;;;0.00;0.00;;;;;;;;6251682;22;47026;-89
2023/09/30 14:08:24;;;;;;;;;0.33;0.33;;;;;;;;6280330;22;45313;-89
2023/09/30 14:10:51;;;;;;;;;0.00;0.00;;;;;;;;6277582;22;45275;-88
2023/09/30 14:13:16;;;;;;;;;3.00;2.00;;;;;;;;6280560;22;45159;-88
2023/09/30 14:15:41;;;;;;;;;1.00;1.00;;;;;;;;6279945;22;45255;-88
2023/09/30 14:18:06;;;;;;;;;1.00;1.00;;;;;;;;6280269;22;45156;-88
2023/09/30 14:20:33;;;;;;;;;1.00;1.00;;;;;;;;6274295;22;45437;-87
2023/09/30 14:22:59;;;;;;;;;0.00;0.00;;;;;;;;6275681;22;45296;-87
2023/09/30 14:25:24;;;;;;;;;4.00;1.00;;;;;;;;6246926;22;46235;-87
2023/09/30 14:27:49;;;;;;;;;1.00;1.00;;;;;;;;6252459;22;45768;-87
2023/09/30 14:30:15;;;;;;;;;1.00;1.00;;;;;;;;6278843;22;45693;-87
2023/09/30 14:32:40;;;;;;;;;1.00;1.00;;;;;;;;6279090;22;45357;-87
2023/09/30 14:35:06;;;;;;;;;1.33;1.33;;;;;;;;6279680;22;45438;-87
2023/09/30 14:37:31;;;;;;;;;1.00;1.00;;;;;;;;6280400;22;45232;-87
2023/09/30 14:39:56;;;;;;;;;0.33;0.33;;;;;;;;6279443;22;45430;-87
2023/09/30 14:42:22;;;;;;;;;1.67;1.67;;;;;;;;6280596;22;45329;-87
2023/09/30 14:44:47;;;;;;;;;0.67;0.67;;;;;;;;6280427;22;45415;-87
2023/09/30 14:47:12;;;;;;;;;1.00;1.00;;;;;;;;6252013;22;45205;-87
2023/09/30 14:49:37;;;;;;;;;1.00;1.00;;;;;;;;6252130;22;45105;-87
2023/09/30 14:52:04;;;;;;;;;1.00;1.00;;;;;;;;6252555;22;45109;-87
2023/09/30 14:54:30;;;;;;;;;1.00;1.00;;;;;;;;6279073;22;45260;-87
2023/09/30 14:56:55;;;;;;;;;1.67;1.67;;;;;;;;6252072;22;45134;-87
2023/09/30 14:59:20;;;;;;;;;2.33;1.33;;;;;;;;6277577;22;45212;-87
2023/09/30 15:01:45;;;;;;;;;1.00;1.00;;;;;;;;6280771;22;45191;-86
2023/09/30 15:04:10;;;;;;;;;1.00;1.00;;;;;;;;6279978;22;45401;-86
2023/09/30 15:06:36;;;;;;;;;1.33;1.33;;;;;;;;6280385;22;45388;-86
2023/09/30 15:09:01;;;;;;;;;2.00;1.00;;;;;;;;6279328;22;45182;-86
2023/09/30 15:11:29;;;;;;;;;1.00;1.00;;;;;;;;6279316;22;45395;-86
2023/09/30 15:13:55;;;;;;;;;3.00;2.00;;;;;;;;6279787;22;45211;-86
2023/09/30 15:16:21;;;;;;;;;1.00;1.00;;;;;;;;6279882;22;45319;-86
2023/09/30 15:18:48;;;;;;;;;2.33;1.00;;;;;;;;6280154;22;45291;-86
2023/09/30 15:21:13;;;;;;;;;0.67;0.67;;;;;;;;6280063;22;45163;-86
2023/09/30 15:23:39;;;;;;;;;1.00;1.00;;;;;;;;6280857;22;45517;-86
2023/09/30 15:26:04;;;;;;;;;1.67;1.67;;;;;;;;6281219;22;45215;-86
2023/09/30 15:28:29;;;;;;;;;1.67;1.67;;;;;;;;6281278;22;45208;-86
2023/09/30 15:30:56;;;;;;;;;0.33;0.33;;;;;;;;6281342;22;45187;-86
2023/09/30 15:33:21;;;;;;;;;1.33;1.33;;;;;;;;6253502;22;47422;-86
2023/09/30 15:35:46;;;;;;;;;0.67;0.67;;;;;;;;6281582;22;45136;-86
2023/09/30 15:38:11;;;;;;;;;1.00;1.00;;;;;;;;6281430;22;45086;-86
2023/09/30 15:41:03;;;;;;;;;1.67;0.33;;;;;;;;6281026;22;45140;-86
2023/09/30 15:43:32;;;;;;;;;1.67;1.00;;;;;;;;6250961;22;46114;-86
2023/09/30 15:45:58;;;;;;;;;2.33;2.33;;;;;;;;6281145;22;45279;-86
2023/09/30 15:48:24;;;;;;;;;0.33;0.33;;;;;;;;6281276;22;45317;-86
2023/09/30 15:51:31;;;;;;;;;3.00;2.00;;;;;;;;6280448;22;45252;-89
